createdAt,value
2023-04-03T00:00:56.537Z,3.60
2023-04-03T00:05:58.327Z,3.45
2023-04-03T00:10:59.978Z,3.50
2023-04-03T00:16:01.913Z,3.40
2023-04-03T00:21:04.308Z,3.45
2023-04-03T00:26:05.967Z,3.42
2023-04-03T00:31:07.687Z,3.00
2023-04-03T00:36:10.735Z,3.15
2023-04-03T00:41:12.894Z,3.20
2023-04-03T00:46:15.001Z,3.30
2023-04-03T00:51:25.619Z,2.92
2023-04-03T00:56:30.774Z,3.45
2023-04-03T01:01:33.053Z,3.17
2023-04-03T01:06:38.169Z,3.10
2023-04-03T01:11:42.502Z,3.25
2023-04-03T01:16:44.235Z,3.65
2023-04-03T01:22:04.694Z,3.40
2023-04-03T01:27:09.153Z,3.08
2023-04-03T01:32:11.314Z,2.92
2023-04-03T01:37:12.992Z,3.42
2023-04-03T01:42:16.916Z,3.10
2023-04-03T01:47:19.850Z,3.33
2023-04-03T01:52:21.616Z,3.00
2023-04-03T01:57:23.388Z,3.72
2023-04-03T02:02:25.699Z,3.25
2023-04-03T02:07:28.258Z,3.20
2023-04-03T02:12:29.903Z,3.43
2023-04-03T02:17:31.635Z,3.05
2023-04-03T02:22:33.285Z,3.70
2023-04-03T02:27:34.969Z,3.30
2023-04-03T02:32:36.597Z,3.30
2023-04-03T02:37:39.071Z,3.10
2023-04-03T02:42:40.771Z,3.30
2023-04-03T02:47:42.535Z,3.17
2023-04-03T02:52:45.110Z,2.97
2023-04-03T02:57:47.176Z,3.00
2023-04-03T03:02:50.460Z,3.20
2023-04-03T03:07:52.155Z,3.40
2023-04-03T03:12:53.802Z,3.20
2023-04-03T03:17:55.572Z,2.87
2023-04-03T03:22:57.280Z,3.40
2023-04-03T03:27:58.902Z,3.27
2023-04-03T03:33:00.750Z,3.20
2023-04-03T03:38:02.417Z,2.90
2023-04-03T03:43:04.306Z,2.93
2023-04-03T03:48:06.864Z,3.10
2023-04-03T03:53:08.909Z,3.30
2023-04-03T03:58:10.774Z,3.63
2023-04-03T04:03:13.092Z,3.83
2023-04-03T04:08:16.056Z,3.33
2023-04-03T04:13:19.733Z,3.03
2023-04-03T04:18:23.538Z,3.10
2023-04-03T04:23:25.684Z,4.00
2023-04-03T04:28:28.772Z,3.30
2023-04-03T04:33:32.490Z,3.30
2023-04-03T04:38:37.217Z,3.10
2023-04-03T04:43:39.247Z,3.20
2023-04-03T04:48:41.501Z,3.13
2023-04-03T04:53:44.383Z,3.53
2023-04-03T04:58:49.059Z,3.40
2023-04-03T05:03:53.300Z,3.53
2023-04-03T05:08:54.982Z,3.27
2023-04-03T05:13:57.737Z,3.50
2023-04-03T05:19:01.140Z,2.80
2023-04-03T05:24:04.428Z,2.90
2023-04-03T05:29:08.911Z,3.20
2023-04-03T05:34:12.484Z,3.37
2023-04-03T05:39:15.633Z,3.20
2023-04-03T05:44:19.382Z,4.00
2023-04-03T05:49:22.640Z,3.47
2023-04-03T05:54:27.031Z,4.03
2023-04-03T05:59:34.877Z,4.10
2023-04-03T06:04:36.935Z,3.90
2023-04-03T06:09:38.788Z,3.40
2023-04-03T06:14:40.557Z,3.83
2023-04-03T06:19:42.360Z,4.07
2023-04-03T06:24:44.776Z,4.00
2023-04-03T06:29:46.499Z,4.37
2023-04-03T06:34:48.227Z,4.93
2023-04-03T06:39:50.386Z,5.40
2023-04-03T06:44:52.050Z,4.50
2023-04-03T06:49:53.723Z,4.37
2023-04-03T06:54:58.644Z,4.73
2023-04-03T07:00:00.890Z,4.60
2023-04-03T07:05:03.417Z,5.13
2023-04-03T07:10:06.578Z,5.50
2023-04-03T07:15:09.366Z,5.73
2023-04-03T07:20:11.925Z,5.37
2023-04-03T07:25:15.975Z,6.00
2023-04-03T07:30:17.586Z,5.43
2023-04-03T07:35:19.911Z,5.90
2023-04-03T07:40:22.149Z,6.18
2023-04-03T07:45:24.887Z,5.72
2023-04-03T07:50:27.228Z,6.40
2023-04-03T07:55:28.910Z,6.60
2023-04-03T08:00:31.099Z,7.38
2023-04-03T08:05:32.968Z,6.63
2023-04-03T08:10:35.746Z,7.28
2023-04-03T08:15:38.105Z,6.82
2023-04-03T08:20:41.439Z,7.07
2023-04-03T08:25:44.082Z,7.05
2023-04-03T08:30:47.072Z,8.18
2023-04-03T08:35:48.723Z,7.38
2023-04-03T08:41:03.128Z,8.70
2023-04-03T08:46:07.403Z,7.85
2023-04-03T08:51:18.069Z,9.93
2023-04-03T08:56:20.120Z,10.38
2023-04-03T09:01:31.024Z,9.82
2023-04-03T09:06:33.973Z,10.43
2023-04-03T09:11:51.052Z,9.75
2023-04-03T09:17:02.080Z,10.45
2023-04-03T09:22:17.684Z,9.60
2023-04-03T09:27:19.403Z,9.73
2023-04-03T09:32:32.994Z,9.82
2023-04-03T09:37:43.660Z,9.77
2023-04-03T09:42:51.996Z,9.97
2023-04-03T09:48:18.039Z,10.40
2023-04-03T09:53:40.841Z,12.18
2023-04-03T09:58:50.478Z,11.73
2023-04-03T10:04:17.724Z,12.57
2023-04-03T10:09:28.488Z,12.07
2023-04-03T10:14:31.057Z,11.38
2023-04-03T10:19:44.513Z,11.30
2023-04-03T10:25:04.142Z,11.80
2023-04-03T10:30:30.064Z,12.38
2023-04-03T10:36:12.637Z,14.05
2023-04-03T10:41:35.412Z,15.07
2023-04-03T10:46:49.534Z,14.27
2023-04-03T10:52:22.276Z,15.03
2023-04-03T10:57:26.166Z,13.50
2023-04-03T11:02:37.624Z,14.65
2023-04-03T11:07:43.633Z,15.63
2023-04-03T11:12:50.106Z,15.13
2023-04-03T11:18:21.971Z,14.80
2023-04-03T11:23:35.679Z,14.68
2023-04-03T11:28:45.453Z,14.70
2023-04-03T11:33:59.483Z,14.30
2023-04-03T11:39:11.177Z,16.05
2023-04-03T11:44:48.577Z,16.02
2023-04-03T11:50:06.508Z,15.77
2023-04-03T11:55:20.401Z,15.07
2023-04-03T12:00:53.615Z,15.45
2023-04-03T12:06:18.296Z,15.43
2023-04-03T12:11:19.836Z,16.27
2023-04-03T12:16:27.306Z,16.30
2023-04-03T12:21:35.033Z,16.00
2023-04-03T12:26:58.092Z,16.55
2023-04-03T12:32:24.076Z,16.35
2023-04-03T12:37:25.656Z,15.98
2023-04-03T12:42:30.176Z,16.40
2023-04-03T12:47:39.170Z,16.40
2023-04-03T12:52:45.098Z,16.40
2023-04-03T12:57:47.339Z,16.10
2023-04-03T13:02:49.265Z,16.48
2023-04-03T13:08:15.950Z,16.35
2023-04-03T13:13:17.987Z,16.50
2023-04-03T13:18:36.473Z,17.25
2023-04-03T13:23:41.494Z,16.40
2023-04-03T13:28:44.653Z,16.33
2023-04-03T13:34:04.033Z,16.48
2023-04-03T13:39:27.919Z,16.08
2023-04-03T13:44:36.713Z,16.52
2023-04-03T13:49:41.276Z,16.17
2023-04-03T13:54:43.157Z,16.33
2023-04-03T13:59:45.061Z,16.35
2023-04-03T14:04:57.385Z,16.02
2023-04-03T14:09:59.583Z,16.10
2023-04-03T14:15:02.859Z,16.40
2023-04-03T14:20:05.300Z,16.27
2023-04-03T14:25:07.327Z,15.88
2023-04-03T14:30:33.938Z,16.35
2023-04-03T14:35:35.586Z,16.00
2023-04-03T14:40:37.441Z,15.57
2023-04-03T14:45:40.099Z,15.98
2023-04-03T14:50:49.125Z,15.40
2023-04-03T14:55:56.444Z,15.30
2023-04-03T15:00:58.097Z,15.30
2023-04-03T15:06:00.250Z,15.15
2023-04-03T15:11:02.080Z,16.15
2023-04-03T15:16:05.011Z,15.70
2023-04-03T15:21:06.743Z,15.52
2023-04-03T15:26:08.782Z,15.45
2023-04-03T15:31:10.691Z,15.52
2023-04-03T15:41:18.704Z,15.57
2023-04-03T15:46:20.579Z,14.90
2023-04-03T15:51:22.252Z,15.20
2023-04-03T15:56:23.841Z,15.95
2023-04-03T16:01:25.767Z,15.07
2023-04-03T16:06:30.320Z,15.40
2023-04-03T16:11:31.927Z,15.48
2023-04-03T16:16:33.947Z,14.40
2023-04-03T16:21:35.820Z,15.10
2023-04-03T16:26:37.523Z,14.82
2023-04-03T16:31:39.332Z,14.57
2023-04-03T16:36:41.102Z,14.65
2023-04-03T16:41:42.775Z,14.82
2023-04-03T16:46:46.236Z,15.52
2023-04-03T16:51:50.370Z,15.48
2023-04-03T16:56:52.027Z,15.30
2023-04-03T17:01:53.716Z,16.50
2023-04-03T17:06:56.208Z,15.77
2023-04-03T17:11:57.791Z,15.55
2023-04-03T17:16:59.546Z,15.10
2023-04-03T17:22:02.376Z,14.30
2023-04-03T17:27:04.243Z,13.30
2023-04-03T17:32:05.967Z,13.75
2023-04-03T17:37:07.742Z,14.10
2023-04-03T17:42:09.528Z,14.63
2023-04-03T17:47:11.204Z,13.50
2023-04-03T17:52:12.867Z,13.73
2023-04-03T17:57:14.497Z,13.13
2023-04-03T18:02:16.329Z,13.85
2023-04-03T18:07:17.989Z,13.68
2023-04-03T18:12:19.850Z,13.93
2023-04-03T18:17:22.341Z,13.68
2023-04-03T18:22:24.492Z,13.82
2023-04-03T18:27:28.099Z,13.53
2023-04-03T18:32:29.849Z,14.00
2023-04-03T18:37:31.863Z,13.77
2023-04-03T18:42:33.600Z,13.73
2023-04-03T18:47:36.867Z,13.90
2023-04-03T18:52:38.518Z,13.60
2023-04-03T18:57:40.155Z,13.48
2023-04-03T19:02:42.449Z,13.10
2023-04-03T19:07:44.837Z,13.70
2023-04-03T19:12:48.459Z,13.80
2023-04-03T19:17:51.015Z,14.30
2023-04-03T19:22:53.744Z,13.40
2023-04-03T19:27:55.641Z,13.55
2023-04-03T19:32:57.248Z,12.93
2023-04-03T19:37:58.870Z,13.10
2023-04-03T19:43:00.696Z,12.48
2023-04-03T19:48:03.319Z,12.00
2023-04-03T19:53:06.932Z,12.03
2023-04-03T19:58:08.550Z,12.27
2023-04-03T20:03:10.283Z,12.47
2023-04-03T20:08:14.465Z,11.98
2023-04-03T20:13:16.081Z,12.48
2023-04-03T20:18:19.681Z,11.60
2023-04-03T20:23:22.416Z,11.50
2023-04-03T20:28:24.508Z,11.95
2023-04-03T20:33:29.003Z,12.40
2023-04-03T20:38:30.629Z,11.40
2023-04-03T20:43:32.708Z,11.70
2023-04-03T20:48:34.375Z,11.98
2023-04-03T20:53:36.064Z,11.93
2023-04-03T20:58:41.298Z,11.82
2023-04-03T21:03:43.433Z,11.75
2023-04-03T21:09:22.621Z,12.23
2023-04-03T21:15:01.842Z,10.52
2023-04-03T21:20:03.605Z,11.10
2023-04-03T21:25:05.414Z,11.02
2023-04-03T21:30:07.933Z,10.13
2023-04-03T21:35:09.819Z,10.30
2023-04-03T21:40:11.566Z,10.55
2023-04-03T21:45:16.034Z,9.70
2023-04-03T21:50:19.244Z,10.60
2023-04-03T21:55:20.845Z,10.65
2023-04-03T22:00:23.064Z,11.30
2023-04-03T22:05:24.928Z,10.88
2023-04-03T22:10:26.735Z,10.77
2023-04-03T22:15:28.350Z,11.05
2023-04-03T22:20:29.943Z,10.43
2023-04-03T22:25:32.242Z,10.20
2023-04-03T22:30:33.911Z,10.63
2023-04-03T22:35:35.520Z,10.70
2023-04-03T22:40:37.550Z,10.10
2023-04-03T22:45:50.253Z,9.65
2023-04-03T22:50:51.962Z,8.65
2023-04-03T22:56:04.921Z,7.82
2023-04-03T23:01:11.622Z,7.85
2023-04-03T23:06:13.504Z,7.63
2023-04-03T23:11:15.159Z,8.13
2023-04-03T23:16:17.437Z,6.93
2023-04-03T23:21:19.102Z,6.93
2023-04-03T23:26:20.698Z,7.75
2023-04-03T23:31:22.914Z,8.20
2023-04-03T23:36:24.527Z,7.15
2023-04-03T23:41:26.122Z,7.65
2023-04-03T23:46:27.756Z,7.65
2023-04-03T23:51:29.472Z,7.68
2023-04-03T23:56:31.484Z,6.97
